Ledyard, Iowa
Current Conditions -  °F | °C
As of 2:35 AM on Sunday 21 Dec 2014 (Local Time) from KFRM Reporting Station
Overcast Overcast  
Wind Chill: 22°   Ceiling: 500
Heat Index: 32°   Visibility: 5mi
Dew Point: 28°   Wind: 15mph
Humidity: 87%   Direction: 180°S
Pressure: 29.96"   Gusts: NA
Location:  43.42°N, 94.16°W
Report Text: KFRM 210835Z AUTO 18013KT 5SM OVC005 00/M02 A2996 RMK AO1
Loading
Personal Weather Stations






























Interactive Weather Map New forecast layout! Learn more

10-Day Weather Forecast

Advertisements
Track Severe Weather on mobile